sensor_id;sensor_type;location;lat;lon;timestamp;temperature;humidity
9820;DHT22;4949;48.482;9.206;2023-06-04T00:01:49;17.70;61.40
9820;DHT22;4949;48.482;9.206;2023-06-04T00:06:50;17.60;62.00
9820;DHT22;4949;48.482;9.206;2023-06-04T00:11:50;17.50;62.70
9820;DHT22;4949;48.482;9.206;2023-06-04T00:16:51;17.40;63.20
9820;DHT22;4949;48.482;9.206;2023-06-04T00:21:52;17.30;63.20
9820;DHT22;4949;48.482;9.206;2023-06-04T00:26:55;17.20;63.90
9820;DHT22;4949;48.482;9.206;2023-06-04T00:31:58;17.10;64.30
9820;DHT22;4949;48.482;9.206;2023-06-04T00:37:01;17.00;64.70
9820;DHT22;4949;48.482;9.206;2023-06-04T00:42:02;16.90;65.20
9820;DHT22;4949;48.482;9.206;2023-06-04T00:47:05;16.80;65.20
9820;DHT22;4949;48.482;9.206;2023-06-04T00:52:13;16.70;65.90
9820;DHT22;4949;48.482;9.206;2023-06-04T00:57:15;16.60;66.10
9820;DHT22;4949;48.482;9.206;2023-06-04T01:02:19;16.50;66.00
9820;DHT22;4949;48.482;9.206;2023-06-04T01:07:27;16.40;66.50
9820;DHT22;4949;48.482;9.206;2023-06-04T01:12:29;16.40;66.40
9820;DHT22;4949;48.482;9.206;2023-06-04T01:23:06;16.30;67.40
9820;DHT22;4949;48.482;9.206;2023-06-04T01:28:17;16.10;68.60
9820;DHT22;4949;48.482;9.206;2023-06-04T01:33:21;16.00;68.50
9820;DHT22;4949;48.482;9.206;2023-06-04T01:38:21;15.90;68.60
9820;DHT22;4949;48.482;9.206;2023-06-04T01:43:25;15.90;68.80
9820;DHT22;4949;48.482;9.206;2023-06-04T01:48:25;15.80;68.90
9820;DHT22;4949;48.482;9.206;2023-06-04T01:53:26;15.80;69.30
9820;DHT22;4949;48.482;9.206;2023-06-04T01:58:27;15.60;69.20
9820;DHT22;4949;48.482;9.206;2023-06-04T02:03:29;15.40;69.30
9820;DHT22;4949;48.482;9.206;2023-06-04T02:08:37;15.50;69.00
9820;DHT22;4949;48.482;9.206;2023-06-04T02:13:37;15.50;69.40
9820;DHT22;4949;48.482;9.206;2023-06-04T02:18:40;15.50;68.90
9820;DHT22;4949;48.482;9.206;2023-06-04T02:23:41;15.50;68.20
9820;DHT22;4949;48.482;9.206;2023-06-04T02:28:42;15.40;69.60
9820;DHT22;4949;48.482;9.206;2023-06-04T02:33:47;15.10;70.00
9820;DHT22;4949;48.482;9.206;2023-06-04T02:38:50;15.10;70.30
9820;DHT22;4949;48.482;9.206;2023-06-04T02:43:51;15.00;70.40
9820;DHT22;4949;48.482;9.206;2023-06-04T02:48:52;14.90;69.30
9820;DHT22;4949;48.482;9.206;2023-06-04T02:53:54;14.80;69.10
9820;DHT22;4949;48.482;9.206;2023-06-04T02:58:57;14.80;69.10
9820;DHT22;4949;48.482;9.206;2023-06-04T03:03:58;14.70;69.30
9820;DHT22;4949;48.482;9.206;2023-06-04T03:09:01;14.70;69.90
9820;DHT22;4949;48.482;9.206;2023-06-04T03:14:02;14.60;70.00
9820;DHT22;4949;48.482;9.206;2023-06-04T03:19:03;14.50;70.10
9820;DHT22;4949;48.482;9.206;2023-06-04T03:24:04;14.60;70.40
9820;DHT22;4949;48.482;9.206;2023-06-04T03:29:04;14.40;70.00
9820;DHT22;4949;48.482;9.206;2023-06-04T03:34:06;14.40;70.60
9820;DHT22;4949;48.482;9.206;2023-06-04T03:39:06;14.30;70.80
9820;DHT22;4949;48.482;9.206;2023-06-04T03:44:07;14.30;71.10
9820;DHT22;4949;48.482;9.206;2023-06-04T03:49:14;14.20;71.10
9820;DHT22;4949;48.482;9.206;2023-06-04T03:54:19;14.10;71.40
9820;DHT22;4949;48.482;9.206;2023-06-04T03:59:23;14.10;71.80
9820;DHT22;4949;48.482;9.206;2023-06-04T04:04:24;14.00;71.70
9820;DHT22;4949;48.482;9.206;2023-06-04T04:09:24;14.00;72.00
9820;DHT22;4949;48.482;9.206;2023-06-04T04:14:25;14.00;72.40
9820;DHT22;4949;48.482;9.206;2023-06-04T04:19:28;14.00;72.40
9820;DHT22;4949;48.482;9.206;2023-06-04T04:24:29;14.10;72.20
9820;DHT22;4949;48.482;9.206;2023-06-04T04:29:34;14.10;72.40
9820;DHT22;4949;48.482;9.206;2023-06-04T04:34:36;14.20;71.70
9820;DHT22;4949;48.482;9.206;2023-06-04T04:39:52;14.20;72.10
9820;DHT22;4949;48.482;9.206;2023-06-04T04:44:55;14.30;72.30
9820;DHT22;4949;48.482;9.206;2023-06-04T04:49:56;14.20;72.10
9820;DHT22;4949;48.482;9.206;2023-06-04T04:54:56;14.20;72.20
9820;DHT22;4949;48.482;9.206;2023-06-04T04:59:58;14.30;70.90
9820;DHT22;4949;48.482;9.206;2023-06-04T05:04:58;14.40;70.00
9820;DHT22;4949;48.482;9.206;2023-06-04T05:09:59;14.20;68.30
9820;DHT22;4949;48.482;9.206;2023-06-04T05:15:00;14.60;68.40
9820;DHT22;4949;48.482;9.206;2023-06-04T05:20:03;14.70;67.70
9820;DHT22;4949;48.482;9.206;2023-06-04T05:25:05;14.90;66.90
9820;DHT22;4949;48.482;9.206;2023-06-04T05:30:07;15.00;65.80
9820;DHT22;4949;48.482;9.206;2023-06-04T05:35:09;15.20;64.40
9820;DHT22;4949;48.482;9.206;2023-06-04T05:40:10;15.30;63.30
9820;DHT22;4949;48.482;9.206;2023-06-04T05:45:11;15.40;62.50
9820;DHT22;4949;48.482;9.206;2023-06-04T05:50:14;15.40;62.10
9820;DHT22;4949;48.482;9.206;2023-06-04T05:55:15;15.40;62.20
9820;DHT22;4949;48.482;9.206;2023-06-04T06:00:17;15.60;62.40
9820;DHT22;4949;48.482;9.206;2023-06-04T06:05:19;15.70;63.70
9820;DHT22;4949;48.482;9.206;2023-06-04T06:10:22;15.90;63.40
9820;DHT22;4949;48.482;9.206;2023-06-04T06:15:23;16.00;63.00
9820;DHT22;4949;48.482;9.206;2023-06-04T06:20:24;16.20;63.50
9820;DHT22;4949;48.482;9.206;2023-06-04T06:25:24;16.40;63.50
9820;DHT22;4949;48.482;9.206;2023-06-04T06:30:27;16.60;62.90
9820;DHT22;4949;48.482;9.206;2023-06-04T06:35:28;16.70;62.10
9820;DHT22;4949;48.482;9.206;2023-06-04T06:40:29;16.80;62.10
9820;DHT22;4949;48.482;9.206;2023-06-04T06:45:30;16.90;60.50
9820;DHT22;4949;48.482;9.206;2023-06-04T06:50:31;17.00;61.30
9820;DHT22;4949;48.482;9.206;2023-06-04T06:55:38;17.20;61.40
9820;DHT22;4949;48.482;9.206;2023-06-04T07:00:39;17.40;60.70
9820;DHT22;4949;48.482;9.206;2023-06-04T07:05:40;17.70;59.90
9820;DHT22;4949;48.482;9.206;2023-06-04T07:10:43;17.80;60.00
9820;DHT22;4949;48.482;9.206;2023-06-04T07:15:43;17.90;59.50
9820;DHT22;4949;48.482;9.206;2023-06-04T07:20:44;18.00;59.10
9820;DHT22;4949;48.482;9.206;2023-06-04T07:25:47;18.10;59.30
9820;DHT22;4949;48.482;9.206;2023-06-04T07:30:48;18.20;59.20
9820;DHT22;4949;48.482;9.206;2023-06-04T07:35:49;18.40;58.90
9820;DHT22;4949;48.482;9.206;2023-06-04T07:40:52;18.50;58.50
9820;DHT22;4949;48.482;9.206;2023-06-04T07:45:58;18.60;58.10
9820;DHT22;4949;48.482;9.206;2023-06-04T07:51:00;18.70;58.10
9820;DHT22;4949;48.482;9.206;2023-06-04T07:56:02;18.80;57.90
9820;DHT22;4949;48.482;9.206;2023-06-04T08:01:03;18.90;59.10
9820;DHT22;4949;48.482;9.206;2023-06-04T08:06:07;19.00;58.00
9820;DHT22;4949;48.482;9.206;2023-06-04T08:11:08;19.10;57.20
9820;DHT22;4949;48.482;9.206;2023-06-04T08:16:11;19.20;57.20
9820;DHT22;4949;48.482;9.206;2023-06-04T08:21:28;19.40;56.90
9820;DHT22;4949;48.482;9.206;2023-06-04T08:26:28;19.50;57.00
9820;DHT22;4949;48.482;9.206;2023-06-04T08:31:30;19.70;56.50
9820;DHT22;4949;48.482;9.206;2023-06-04T08:36:31;19.90;55.90
9820;DHT22;4949;48.482;9.206;2023-06-04T08:41:49;20.10;54.90
9820;DHT22;4949;48.482;9.206;2023-06-04T08:47:02;20.10;54.40
9820;DHT22;4949;48.482;9.206;2023-06-04T08:52:04;20.30;54.80
9820;DHT22;4949;48.482;9.206;2023-06-04T08:57:06;20.40;54.70
9820;DHT22;4949;48.482;9.206;2023-06-04T09:02:07;20.70;54.90
9820;DHT22;4949;48.482;9.206;2023-06-04T09:07:11;20.80;54.00
9820;DHT22;4949;48.482;9.206;2023-06-04T09:12:19;20.90;53.80
9820;DHT22;4949;48.482;9.206;2023-06-04T09:17:23;21.20;53.10
9820;DHT22;4949;48.482;9.206;2023-06-04T09:22:34;21.30;52.50
9820;DHT22;4949;48.482;9.206;2023-06-04T09:27:39;21.40;52.00
9820;DHT22;4949;48.482;9.206;2023-06-04T09:32:40;21.60;52.20
9820;DHT22;4949;48.482;9.206;2023-06-04T09:37:42;21.70;51.70
9820;DHT22;4949;48.482;9.206;2023-06-04T09:42:53;22.00;51.00
9820;DHT22;4949;48.482;9.206;2023-06-04T09:48:02;22.10;50.90
9820;DHT22;4949;48.482;9.206;2023-06-04T09:53:15;22.40;49.50
9820;DHT22;4949;48.482;9.206;2023-06-04T09:58:18;22.50;50.20
9820;DHT22;4949;48.482;9.206;2023-06-04T10:03:21;22.70;49.40
9820;DHT22;4949;48.482;9.206;2023-06-04T10:08:26;22.90;47.80
9820;DHT22;4949;48.482;9.206;2023-06-04T10:13:30;23.00;48.20
9820;DHT22;4949;48.482;9.206;2023-06-04T10:18:35;23.10;47.80
9820;DHT22;4949;48.482;9.206;2023-06-04T10:23:36;23.30;46.90
9820;DHT22;4949;48.482;9.206;2023-06-04T10:28:37;23.40;46.40
9820;DHT22;4949;48.482;9.206;2023-06-04T10:33:40;23.60;45.50
9820;DHT22;4949;48.482;9.206;2023-06-04T10:38:54;23.80;45.40
9820;DHT22;4949;48.482;9.206;2023-06-04T10:44:01;24.00;44.40
9820;DHT22;4949;48.482;9.206;2023-06-04T10:49:04;24.20;43.80
9820;DHT22;4949;48.482;9.206;2023-06-04T10:54:05;24.40;43.60
9820;DHT22;4949;48.482;9.206;2023-06-04T10:59:16;24.60;43.40
9820;DHT22;4949;48.482;9.206;2023-06-04T11:04:25;24.80;42.60
9820;DHT22;4949;48.482;9.206;2023-06-04T11:09:29;25.00;43.20
9820;DHT22;4949;48.482;9.206;2023-06-04T11:14:31;25.30;41.70
9820;DHT22;4949;48.482;9.206;2023-06-04T11:19:38;25.50;40.60
9820;DHT22;4949;48.482;9.206;2023-06-04T11:24:39;25.60;39.40
9820;DHT22;4949;48.482;9.206;2023-06-04T11:29:40;25.80;39.20
9820;DHT22;4949;48.482;9.206;2023-06-04T11:34:40;25.90;40.00
9820;DHT22;4949;48.482;9.206;2023-06-04T11:39:41;26.10;40.20
9820;DHT22;4949;48.482;9.206;2023-06-04T11:44:45;26.30;38.50
9820;DHT22;4949;48.482;9.206;2023-06-04T11:49:57;26.20;38.40
9820;DHT22;4949;48.482;9.206;2023-06-04T11:55:00;26.10;38.50
9820;DHT22;4949;48.482;9.206;2023-06-04T12:00:01;26.10;38.30
9820;DHT22;4949;48.482;9.206;2023-06-04T12:05:15;26.30;37.90
9820;DHT22;4949;48.482;9.206;2023-06-04T12:10:23;26.50;37.80
9820;DHT22;4949;48.482;9.206;2023-06-04T12:15:24;26.80;36.80
9820;DHT22;4949;48.482;9.206;2023-06-04T12:20:39;27.00;36.40
9820;DHT22;4949;48.482;9.206;2023-06-04T12:25:40;27.20;36.00
9820;DHT22;4949;48.482;9.206;2023-06-04T12:30:41;27.40;35.40
9820;DHT22;4949;48.482;9.206;2023-06-04T12:35:42;27.50;34.10
9820;DHT22;4949;48.482;9.206;2023-06-04T12:40:43;27.70;34.60
9820;DHT22;4949;48.482;9.206;2023-06-04T12:45:46;27.90;34.20
9820;DHT22;4949;48.482;9.206;2023-06-04T12:50:50;28.00;32.60
9820;DHT22;4949;48.482;9.206;2023-06-04T12:55:50;28.10;33.60
9820;DHT22;4949;48.482;9.206;2023-06-04T13:00:54;28.10;32.80
9820;DHT22;4949;48.482;9.206;2023-06-04T13:05:57;28.50;31.20
9820;DHT22;4949;48.482;9.206;2023-06-04T13:10:58;28.60;31.60
9820;DHT22;4949;48.482;9.206;2023-06-04T13:16:04;28.70;31.10
9820;DHT22;4949;48.482;9.206;2023-06-04T13:21:05;28.90;30.70
9820;DHT22;4949;48.482;9.206;2023-06-04T13:26:06;29.10;29.50
9820;DHT22;4949;48.482;9.206;2023-06-04T13:31:09;29.00;30.30
9820;DHT22;4949;48.482;9.206;2023-06-04T13:36:10;29.30;29.80
9820;DHT22;4949;48.482;9.206;2023-06-04T13:41:11;29.30;29.40
9820;DHT22;4949;48.482;9.206;2023-06-04T13:46:11;29.40;29.70
9820;DHT22;4949;48.482;9.206;2023-06-04T13:51:14;29.70;29.50
9820;DHT22;4949;48.482;9.206;2023-06-04T13:56:17;29.80;28.50
9820;DHT22;4949;48.482;9.206;2023-06-04T14:01:18;29.80;28.80
9820;DHT22;4949;48.482;9.206;2023-06-04T14:06:19;29.90;28.90
9820;DHT22;4949;48.482;9.206;2023-06-04T14:11:24;29.90;28.70
9820;DHT22;4949;48.482;9.206;2023-06-04T14:16:27;30.10;28.50
9820;DHT22;4949;48.482;9.206;2023-06-04T14:21:28;30.10;28.10
9820;DHT22;4949;48.482;9.206;2023-06-04T14:26:29;30.20;28.20
9820;DHT22;4949;48.482;9.206;2023-06-04T14:31:30;30.30;27.40
9820;DHT22;4949;48.482;9.206;2023-06-04T14:36:31;30.40;27.60
9820;DHT22;4949;48.482;9.206;2023-06-04T14:41:32;30.50;27.50
9820;DHT22;4949;48.482;9.206;2023-06-04T14:46:35;30.50;27.30
9820;DHT22;4949;48.482;9.206;2023-06-04T14:51:38;30.40;27.10
9820;DHT22;4949;48.482;9.206;2023-06-04T14:56:39;30.40;27.10
9820;DHT22;4949;48.482;9.206;2023-06-04T15:01:41;30.40;26.40
9820;DHT22;4949;48.482;9.206;2023-06-04T15:06:49;30.40;26.40
9820;DHT22;4949;48.482;9.206;2023-06-04T15:11:50;30.30;26.80
9820;DHT22;4949;48.482;9.206;2023-06-04T15:16:51;30.10;27.00
9820;DHT22;4949;48.482;9.206;2023-06-04T15:21:51;29.90;27.40
9820;DHT22;4949;48.482;9.206;2023-06-04T15:26:52;29.50;27.60
9820;DHT22;4949;48.482;9.206;2023-06-04T15:31:53;29.50;27.90
9820;DHT22;4949;48.482;9.206;2023-06-04T15:36:54;29.40;27.60
9820;DHT22;4949;48.482;9.206;2023-06-04T15:41:54;29.30;27.90
9820;DHT22;4949;48.482;9.206;2023-06-04T15:46:55;29.20;28.20
9820;DHT22;4949;48.482;9.206;2023-06-04T15:51:56;29.30;28.60
9820;DHT22;4949;48.482;9.206;2023-06-04T15:56:57;29.40;28.20
9820;DHT22;4949;48.482;9.206;2023-06-04T16:01:58;29.50;27.80
9820;DHT22;4949;48.482;9.206;2023-06-04T16:07:02;29.50;28.00
9820;DHT22;4949;48.482;9.206;2023-06-04T16:12:03;29.30;28.10
9820;DHT22;4949;48.482;9.206;2023-06-04T16:17:05;29.30;28.20
9820;DHT22;4949;48.482;9.206;2023-06-04T16:22:06;29.30;28.00
9820;DHT22;4949;48.482;9.206;2023-06-04T16:27:09;29.00;27.90
9820;DHT22;4949;48.482;9.206;2023-06-04T16:32:11;28.90;27.90
9820;DHT22;4949;48.482;9.206;2023-06-04T16:37:11;29.00;28.10
9820;DHT22;4949;48.482;9.206;2023-06-04T16:42:12;29.20;27.80
9820;DHT22;4949;48.482;9.206;2023-06-04T16:47:13;29.20;27.70
9820;DHT22;4949;48.482;9.206;2023-06-04T16:52:14;29.20;27.60
9820;DHT22;4949;48.482;9.206;2023-06-04T16:57:17;29.40;27.10
9820;DHT22;4949;48.482;9.206;2023-06-04T17:02:19;29.40;27.10
9820;DHT22;4949;48.482;9.206;2023-06-04T17:07:20;29.50;26.90
9820;DHT22;4949;48.482;9.206;2023-06-04T17:12:21;29.30;26.90
9820;DHT22;4949;48.482;9.206;2023-06-04T17:17:22;29.00;27.10
9820;DHT22;4949;48.482;9.206;2023-06-04T17:22:23;28.80;27.20
9820;DHT22;4949;48.482;9.206;2023-06-04T17:27:23;28.90;27.30
9820;DHT22;4949;48.482;9.206;2023-06-04T17:32:24;28.80;27.50
9820;DHT22;4949;48.482;9.206;2023-06-04T17:37:27;28.80;27.90
9820;DHT22;4949;48.482;9.206;2023-06-04T17:42:41;28.70;27.40
9820;DHT22;4949;48.482;9.206;2023-06-04T17:47:46;28.60;27.20
9820;DHT22;4949;48.482;9.206;2023-06-04T17:52:47;28.60;27.60
9820;DHT22;4949;48.482;9.206;2023-06-04T17:57:49;28.50;27.50
9820;DHT22;4949;48.482;9.206;2023-06-04T18:02:50;28.40;27.70
9820;DHT22;4949;48.482;9.206;2023-06-04T18:07:51;28.30;28.00
9820;DHT22;4949;48.482;9.206;2023-06-04T18:12:51;28.20;28.40
9820;DHT22;4949;48.482;9.206;2023-06-04T18:17:52;28.00;29.20
9820;DHT22;4949;48.482;9.206;2023-06-04T18:22:53;27.90;29.60
9820;DHT22;4949;48.482;9.206;2023-06-04T18:27:53;28.20;29.60
9820;DHT22;4949;48.482;9.206;2023-06-04T18:32:59;28.30;31.30
9820;DHT22;4949;48.482;9.206;2023-06-04T18:38:00;28.40;28.80
9820;DHT22;4949;48.482;9.206;2023-06-04T18:43:04;28.40;29.60
9820;DHT22;4949;48.482;9.206;2023-06-04T18:48:07;28.70;30.40
9820;DHT22;4949;48.482;9.206;2023-06-04T18:53:11;29.30;29.70
9820;DHT22;4949;48.482;9.206;2023-06-04T18:58:11;29.50;27.60
9820;DHT22;4949;48.482;9.206;2023-06-04T19:03:12;29.50;27.20
9820;DHT22;4949;48.482;9.206;2023-06-04T19:08:13;29.20;27.40
9820;DHT22;4949;48.482;9.206;2023-06-04T19:13:17;28.90;27.80
9820;DHT22;4949;48.482;9.206;2023-06-04T19:18:19;28.40;28.50
9820;DHT22;4949;48.482;9.206;2023-06-04T19:23:20;27.90;28.90
9820;DHT22;4949;48.482;9.206;2023-06-04T19:28:21;27.30;29.80
9820;DHT22;4949;48.482;9.206;2023-06-04T19:33:24;26.40;32.20
9820;DHT22;4949;48.482;9.206;2023-06-04T19:38:25;26.10;33.00
9820;DHT22;4949;48.482;9.206;2023-06-04T19:43:26;25.70;34.20
9820;DHT22;4949;48.482;9.206;2023-06-04T19:48:29;25.60;35.20
9820;DHT22;4949;48.482;9.206;2023-06-04T19:53:30;25.30;36.10
9820;DHT22;4949;48.482;9.206;2023-06-04T19:58:36;25.00;37.10
9820;DHT22;4949;48.482;9.206;2023-06-04T20:03:37;24.60;38.10
9820;DHT22;4949;48.482;9.206;2023-06-04T20:08:39;24.20;39.50
9820;DHT22;4949;48.482;9.206;2023-06-04T20:13:40;23.90;40.10
9820;DHT22;4949;48.482;9.206;2023-06-04T20:18:44;23.60;40.90
9820;DHT22;4949;48.482;9.206;2023-06-04T20:23:44;23.30;41.50
9820;DHT22;4949;48.482;9.206;2023-06-04T20:28:52;23.10;42.70
9820;DHT22;4949;48.482;9.206;2023-06-04T20:33:55;22.80;42.90
9820;DHT22;4949;48.482;9.206;2023-06-04T20:38:58;22.60;43.90
9820;DHT22;4949;48.482;9.206;2023-06-04T20:44:00;22.30;44.30
9820;DHT22;4949;48.482;9.206;2023-06-04T20:49:01;22.00;45.10
9820;DHT22;4949;48.482;9.206;2023-06-04T20:54:04;21.80;45.30
9820;DHT22;4949;48.482;9.206;2023-06-04T20:59:05;21.60;45.70
9820;DHT22;4949;48.482;9.206;2023-06-04T21:04:08;21.40;46.80
9820;DHT22;4949;48.482;9.206;2023-06-04T21:09:10;21.20;47.40
9820;DHT22;4949;48.482;9.206;2023-06-04T21:14:13;20.90;48.10
9820;DHT22;4949;48.482;9.206;2023-06-04T21:19:16;20.80;48.40
9820;DHT22;4949;48.482;9.206;2023-06-04T21:24:17;20.70;48.60
9820;DHT22;4949;48.482;9.206;2023-06-04T21:29:18;20.60;48.50
9820;DHT22;4949;48.482;9.206;2023-06-04T21:34:18;20.50;47.70
9820;DHT22;4949;48.482;9.206;2023-06-04T21:39:21;20.30;49.10
9820;DHT22;4949;48.482;9.206;2023-06-04T21:44:22;20.20;50.20
9820;DHT22;4949;48.482;9.206;2023-06-04T21:49:25;20.10;50.60
9820;DHT22;4949;48.482;9.206;2023-06-04T21:54:26;20.00;50.70
9820;DHT22;4949;48.482;9.206;2023-06-04T21:59:29;19.80;51.50
9820;DHT22;4949;48.482;9.206;2023-06-04T22:04:30;19.50;52.00
9820;DHT22;4949;48.482;9.206;2023-06-04T22:09:31;19.40;52.40
9820;DHT22;4949;48.482;9.206;2023-06-04T22:14:31;19.30;53.20
9820;DHT22;4949;48.482;9.206;2023-06-04T22:19:32;19.20;53.10
9820;DHT22;4949;48.482;9.206;2023-06-04T22:24:35;19.00;53.50
9820;DHT22;4949;48.482;9.206;2023-06-04T22:29:41;18.90;54.30
9820;DHT22;4949;48.482;9.206;2023-06-04T22:34:41;18.70;54.80
9820;DHT22;4949;48.482;9.206;2023-06-04T22:39:44;18.60;55.30
9820;DHT22;4949;48.482;9.206;2023-06-04T22:44:45;18.50;55.50
9820;DHT22;4949;48.482;9.206;2023-06-04T22:49:46;18.40;55.60
9820;DHT22;4949;48.482;9.206;2023-06-04T22:54:47;18.20;55.70
9820;DHT22;4949;48.482;9.206;2023-06-04T22:59:47;18.10;56.40
9820;DHT22;4949;48.482;9.206;2023-06-04T23:04:52;18.00;56.50
9820;DHT22;4949;48.482;9.206;2023-06-04T23:09:52;17.80;56.50
9820;DHT22;4949;48.482;9.206;2023-06-04T23:14:55;17.70;57.20
9820;DHT22;4949;48.482;9.206;2023-06-04T23:19:56;17.60;57.90
9820;DHT22;4949;48.482;9.206;2023-06-04T23:24:57;17.60;58.00
9820;DHT22;4949;48.482;9.206;2023-06-04T23:30:01;17.40;58.00
9820;DHT22;4949;48.482;9.206;2023-06-04T23:35:04;17.20;58.50
9820;DHT22;4949;48.482;9.206;2023-06-04T23:40:05;17.10;58.80
9820;DHT22;4949;48.482;9.206;2023-06-04T23:45:07;17.00;59.60
9820;DHT22;4949;48.482;9.206;2023-06-04T23:50:09;17.00;59.80
9820;DHT22;4949;48.482;9.206;2023-06-04T23:55:13;16.90;59.90
